sensor_id;sensor_type;location;lat;lon;timestamp;pressure;altitude;pressure_sealevel;temperature;humidity
71976;BME280;60680;52.182;5.398;2022-10-17T00:01:21;101675.50;;;13.96;91.11
71976;BME280;60680;52.182;5.398;2022-10-17T00:03:48;101672.97;;;13.95;91.41
71976;BME280;60680;52.182;5.398;2022-10-17T00:06:14;101673.03;;;13.93;91.87
71976;BME280;60680;52.182;5.398;2022-10-17T00:08:41;101671.25;;;13.94;91.66
71976;BME280;60680;52.182;5.398;2022-10-17T00:11:14;101676.47;;;13.94;91.82
71976;BME280;60680;52.182;5.398;2022-10-17T00:13:41;101675.81;;;13.90;91.52
71976;BME280;60680;52.182;5.398;2022-10-17T00:16:09;101669.66;;;13.91;91.72
71976;BME280;60680;52.182;5.398;2022-10-17T00:18:35;101661.78;;;13.91;91.86
71976;BME280;60680;52.182;5.398;2022-10-17T00:21:02;101655.03;;;13.87;91.83
71976;BME280;60680;52.182;5.398;2022-10-17T00:23:28;101644.72;;;13.84;92.02
71976;BME280;60680;52.182;5.398;2022-10-17T00:26:00;101646.41;;;13.85;92.41
71976;BME280;60680;52.182;5.398;2022-10-17T00:28:27;101645.63;;;13.83;92.36
71976;BME280;60680;52.182;5.398;2022-10-17T00:31:02;101646.41;;;13.85;92.23
71976;BME280;60680;52.182;5.398;2022-10-17T00:33:29;101643.97;;;13.82;92.05
71976;BME280;60680;52.182;5.398;2022-10-17T00:36:10;101653.41;;;13.84;92.48
71976;BME280;60680;52.182;5.398;2022-10-17T00:38:40;101645.75;;;13.81;92.37
71976;BME280;60680;52.182;5.398;2022-10-17T00:41:08;101640.50;;;13.81;92.29
71976;BME280;60680;52.182;5.398;2022-10-17T00:44:02;101653.47;;;13.83;92.49
71976;BME280;60680;52.182;5.398;2022-10-17T00:46:39;101643.19;;;13.80;92.52
71976;BME280;60680;52.182;5.398;2022-10-17T00:49:08;101642.34;;;13.79;92.35
71976;BME280;60680;52.182;5.398;2022-10-17T00:51:40;101637.25;;;13.76;92.58
71976;BME280;60680;52.182;5.398;2022-10-17T00:54:08;101641.72;;;13.74;92.58
71976;BME280;60680;52.182;5.398;2022-10-17T00:56:36;101638.28;;;13.74;92.55
71976;BME280;60680;52.182;5.398;2022-10-17T00:59:10;101641.66;;;13.76;92.45
71976;BME280;60680;52.182;5.398;2022-10-17T01:01:39;101642.50;;;13.76;92.39
71976;BME280;60680;52.182;5.398;2022-10-17T01:04:06;101644.34;;;13.74;92.86
71976;BME280;60680;52.182;5.398;2022-10-17T01:06:33;101631.31;;;13.73;92.84
71976;BME280;60680;52.182;5.398;2022-10-17T01:08:59;101633.88;;;13.74;92.49
71976;BME280;60680;52.182;5.398;2022-10-17T01:11:55;101637.03;;;13.81;92.18
71976;BME280;60680;52.182;5.398;2022-10-17T01:17:11;101625.13;;;13.75;92.73
71976;BME280;60680;52.182;5.398;2022-10-17T01:23:09;101617.94;;;13.79;92.76
71976;BME280;60680;52.182;5.398;2022-10-17T01:31:42;101614.56;;;13.77;92.73
71976;BME280;60680;52.182;5.398;2022-10-17T01:34:22;101606.81;;;13.75;93.32
71976;BME280;60680;52.182;5.398;2022-10-17T01:37:04;101602.56;;;13.73;92.93
71976;BME280;60680;52.182;5.398;2022-10-17T01:42:15;101599.94;;;13.73;92.89
71976;BME280;60680;52.182;5.398;2022-10-17T01:44:56;101611.09;;;13.76;93.38
71976;BME280;60680;52.182;5.398;2022-10-17T01:47:28;101608.66;;;13.73;93.31
71976;BME280;60680;52.182;5.398;2022-10-17T01:50:02;101606.88;;;13.74;93.97
71976;BME280;60680;52.182;5.398;2022-10-17T01:52:37;101606.03;;;13.73;93.84
71976;BME280;60680;52.182;5.398;2022-10-17T01:55:10;101611.34;;;13.72;93.71
71976;BME280;60680;52.182;5.398;2022-10-17T01:57:41;101599.94;;;13.73;94.10
71976;BME280;60680;52.182;5.398;2022-10-17T02:00:14;101605.16;;;13.73;93.87
71976;BME280;60680;52.182;5.398;2022-10-17T02:02:43;101593.81;;;13.74;93.01
71976;BME280;60680;52.182;5.398;2022-10-17T02:05:11;101575.63;;;13.71;94.03
71976;BME280;60680;52.182;5.398;2022-10-17T02:07:40;101566.88;;;13.72;93.99
71976;BME280;60680;52.182;5.398;2022-10-17T02:13:18;101559.94;;;13.71;93.65
71976;BME280;60680;52.182;5.398;2022-10-17T02:16:03;101551.19;;;13.72;94.51
71976;BME280;60680;52.182;5.398;2022-10-17T02:21:32;101551.13;;;13.73;94.66
71976;BME280;60680;52.182;5.398;2022-10-17T02:24:31;101545.63;;;13.78;94.21
71976;BME280;60680;52.182;5.398;2022-10-17T02:30:25;101555.16;;;13.79;94.64
71976;BME280;60680;52.182;5.398;2022-10-17T02:32:58;101558.72;;;13.78;95.56
71976;BME280;60680;52.182;5.398;2022-10-17T02:35:31;101556.09;;;13.78;95.11
71976;BME280;60680;52.182;5.398;2022-10-17T02:37:58;101546.53;;;13.77;95.15
71976;BME280;60680;52.182;5.398;2022-10-17T02:40:28;101549.94;;;13.79;95.45
71976;BME280;60680;52.182;5.398;2022-10-17T02:42:57;101541.25;;;13.78;95.69
71976;BME280;60680;52.182;5.398;2022-10-17T02:45:26;101539.47;;;13.79;95.77
71976;BME280;60680;52.182;5.398;2022-10-17T02:54:05;101536.63;;;13.83;95.83
71976;BME280;60680;52.182;5.398;2022-10-17T02:56:41;101541.09;;;13.81;96.18
71976;BME280;60680;52.182;5.398;2022-10-17T02:59:11;101541.09;;;13.81;96.51
71976;BME280;60680;52.182;5.398;2022-10-17T03:01:39;101544.53;;;13.82;96.28
71976;BME280;60680;52.182;5.398;2022-10-17T03:04:08;101542.78;;;13.82;97.23
71976;BME280;60680;52.182;5.398;2022-10-17T03:06:35;101550.53;;;13.84;96.93
71976;BME280;60680;52.182;5.398;2022-10-17T03:09:02;101552.31;;;13.83;96.39
71976;BME280;60680;52.182;5.398;2022-10-17T03:11:29;101554.75;;;13.86;96.96
71976;BME280;60680;52.182;5.398;2022-10-17T03:13:55;101544.13;;;13.90;97.67
71976;BME280;60680;52.182;5.398;2022-10-17T03:16:22;101548.38;;;13.92;97.82
71976;BME280;60680;52.182;5.398;2022-10-17T03:18:48;101546.53;;;13.94;98.00
71976;BME280;60680;52.182;5.398;2022-10-17T03:21:15;101550.50;;;14.01;98.53
71976;BME280;60680;52.182;5.398;2022-10-17T03:23:42;101537.84;;;14.10;98.59
71976;BME280;60680;52.182;5.398;2022-10-17T03:26:09;101549.00;;;14.13;98.49
71976;BME280;60680;52.182;5.398;2022-10-17T03:28:36;101547.97;;;14.16;98.90
71976;BME280;60680;52.182;5.398;2022-10-17T03:31:16;101539.13;;;14.18;99.04
71976;BME280;60680;52.182;5.398;2022-10-17T03:33:43;101542.25;;;14.25;98.98
71976;BME280;60680;52.182;5.398;2022-10-17T03:36:12;101551.78;;;14.26;99.13
71976;BME280;60680;52.182;5.398;2022-10-17T03:38:39;101544.69;;;14.28;99.11
71976;BME280;60680;52.182;5.398;2022-10-17T03:41:06;101556.84;;;14.29;99.51
71976;BME280;60680;52.182;5.398;2022-10-17T03:43:32;101565.47;;;14.31;99.65
71976;BME280;60680;52.182;5.398;2022-10-17T03:46:00;101567.13;;;14.32;99.32
71976;BME280;60680;52.182;5.398;2022-10-17T03:48:28;101560.22;;;14.31;98.98
71976;BME280;60680;52.182;5.398;2022-10-17T03:51:04;101562.44;;;14.39;99.61
71976;BME280;60680;52.182;5.398;2022-10-17T03:53:32;101570.38;;;14.37;99.65
71976;BME280;60680;52.182;5.398;2022-10-17T03:56:13;101568.34;;;14.42;99.63
71976;BME280;60680;52.182;5.398;2022-10-17T03:58:41;101564.03;;;14.41;99.23
71976;BME280;60680;52.182;5.398;2022-10-17T04:01:09;101555.25;;;14.42;99.73
71976;BME280;60680;52.182;5.398;2022-10-17T04:03:36;101556.84;;;14.45;99.54
71976;BME280;60680;52.182;5.398;2022-10-17T04:06:03;101561.09;;;14.47;99.68
71976;BME280;60680;52.182;5.398;2022-10-17T04:08:30;101567.16;;;14.48;100.00
71976;BME280;60680;52.182;5.398;2022-10-17T04:11:00;101561.84;;;14.50;100.00
71976;BME280;60680;52.182;5.398;2022-10-17T04:13:27;101563.53;;;14.51;99.70
71976;BME280;60680;52.182;5.398;2022-10-17T04:16:01;101563.28;;;14.55;99.62
71976;BME280;60680;52.182;5.398;2022-10-17T04:18:28;101557.19;;;14.55;100.00
71976;BME280;60680;52.182;5.398;2022-10-17T04:20:54;101553.81;;;14.53;99.66
71976;BME280;60680;52.182;5.398;2022-10-17T04:23:21;101558.91;;;14.56;100.00
71976;BME280;60680;52.182;5.398;2022-10-17T04:25:48;101570.16;;;14.58;99.99
71976;BME280;60680;52.182;5.398;2022-10-17T04:28:14;101568.28;;;14.60;100.00
71976;BME280;60680;52.182;5.398;2022-10-17T04:30:41;101560.41;;;14.60;99.86
71976;BME280;60680;52.182;5.398;2022-10-17T04:33:10;101565.66;;;14.60;99.67
71976;BME280;60680;52.182;5.398;2022-10-17T04:35:37;101571.91;;;14.57;100.00
71976;BME280;60680;52.182;5.398;2022-10-17T04:38:03;101559.75;;;14.56;100.00
71976;BME280;60680;52.182;5.398;2022-10-17T04:40:30;101564.06;;;14.57;99.59
71976;BME280;60680;52.182;5.398;2022-10-17T04:42:56;101574.53;;;14.57;99.54
71976;BME280;60680;52.182;5.398;2022-10-17T04:45:22;101562.31;;;14.58;100.00
71976;BME280;60680;52.182;5.398;2022-10-17T04:47:49;101581.56;;;14.57;99.91
71976;BME280;60680;52.182;5.398;2022-10-17T04:50:15;101596.34;;;14.58;100.00
71976;BME280;60680;52.182;5.398;2022-10-17T04:52:41;101599.63;;;14.61;99.77
71976;BME280;60680;52.182;5.398;2022-10-17T04:55:08;101602.25;;;14.61;100.00
71976;BME280;60680;52.182;5.398;2022-10-17T04:57:36;101602.09;;;14.64;100.00
71976;BME280;60680;52.182;5.398;2022-10-17T05:00:03;101600.31;;;14.65;100.00
71976;BME280;60680;52.182;5.398;2022-10-17T05:02:29;101598.59;;;14.64;100.00
71976;BME280;60680;52.182;5.398;2022-10-17T05:04:56;101607.41;;;14.63;99.91
71976;BME280;60680;52.182;5.398;2022-10-17T05:07:23;101595.91;;;14.65;100.00
71976;BME280;60680;52.182;5.398;2022-10-17T05:09:49;101606.31;;;14.67;99.89
71976;BME280;60680;52.182;5.398;2022-10-17T05:12:15;101607.16;;;14.67;100.00
71976;BME280;60680;52.182;5.398;2022-10-17T05:14:42;101603.69;;;14.67;99.96
71976;BME280;60680;52.182;5.398;2022-10-17T05:17:08;101613.34;;;14.66;100.00
71976;BME280;60680;52.182;5.398;2022-10-17T05:19:35;101604.72;;;14.64;99.53
71976;BME280;60680;52.182;5.398;2022-10-17T05:22:01;101608.25;;;14.63;99.65
71976;BME280;60680;52.182;5.398;2022-10-17T05:24:27;101608.25;;;14.63;100.00
71976;BME280;60680;52.182;5.398;2022-10-17T05:26:54;101605.56;;;14.65;99.86
71976;BME280;60680;52.182;5.398;2022-10-17T05:29:21;101602.09;;;14.64;99.67
71976;BME280;60680;52.182;5.398;2022-10-17T05:31:47;101603.09;;;14.62;100.00
71976;BME280;60680;52.182;5.398;2022-10-17T05:34:13;101606.38;;;14.65;100.00
71976;BME280;60680;52.182;5.398;2022-10-17T05:36:40;101617.72;;;14.66;100.00
71976;BME280;60680;52.182;5.398;2022-10-17T05:39:06;101622.19;;;14.64;100.00
71976;BME280;60680;52.182;5.398;2022-10-17T05:41:34;101627.34;;;14.65;100.00
71976;BME280;60680;52.182;5.398;2022-10-17T05:44:00;101620.16;;;14.69;100.00
71976;BME280;60680;52.182;5.398;2022-10-17T05:46:31;101626.25;;;14.70;100.00
71976;BME280;60680;52.182;5.398;2022-10-17T05:48:57;101634.09;;;14.70;100.00
71976;BME280;60680;52.182;5.398;2022-10-17T05:51:23;101634.03;;;14.71;100.00
71976;BME280;60680;52.182;5.398;2022-10-17T05:53:50;101625.16;;;14.74;100.00
71976;BME280;60680;52.182;5.398;2022-10-17T05:56:16;101618.97;;;14.75;100.00
71976;BME280;60680;52.182;5.398;2022-10-17T05:58:45;101618.97;;;14.75;100.00
71976;BME280;60680;52.182;5.398;2022-10-17T06:01:20;101607.66;;;14.74;100.00
71976;BME280;60680;52.182;5.398;2022-10-17T06:03:46;101611.09;;;14.75;100.00
71976;BME280;60680;52.182;5.398;2022-10-17T06:06:13;101600.63;;;14.75;100.00
71976;BME280;60680;52.182;5.398;2022-10-17T06:08:40;101617.09;;;14.77;100.00
71976;BME280;60680;52.182;5.398;2022-10-17T06:11:07;101617.03;;;14.78;100.00
71976;BME280;60680;52.182;5.398;2022-10-17T06:13:36;101623.97;;;14.79;100.00
71976;BME280;60680;52.182;5.398;2022-10-17T06:16:03;101622.19;;;14.80;100.00
71976;BME280;60680;52.182;5.398;2022-10-17T06:18:29;101629.09;;;14.81;100.00
71976;BME280;60680;52.182;5.398;2022-10-17T06:21:08;101631.56;;;14.84;100.00
71976;BME280;60680;52.182;5.398;2022-10-17T06:23:36;101627.09;;;14.86;100.00
71976;BME280;60680;52.182;5.398;2022-10-17T06:26:04;101632.16;;;14.89;100.00
71976;BME280;60680;52.182;5.398;2022-10-17T06:28:31;101633.84;;;14.90;100.00
71976;BME280;60680;52.182;5.398;2022-10-17T06:30:58;101641.63;;;14.92;100.00
71976;BME280;60680;52.182;5.398;2022-10-17T06:33:24;101646.84;;;14.92;100.00
71976;BME280;60680;52.182;5.398;2022-10-17T06:35:54;101654.63;;;14.93;100.00
71976;BME280;60680;52.182;5.398;2022-10-17T06:38:21;101652.84;;;14.94;100.00
71976;BME280;60680;52.182;5.398;2022-10-17T06:40:48;101659.81;;;14.95;100.00
71976;BME280;60680;52.182;5.398;2022-10-17T06:43:14;101662.16;;;14.99;100.00
71976;BME280;60680;52.182;5.398;2022-10-17T06:45:41;101666.50;;;15.00;100.00
71976;BME280;60680;52.182;5.398;2022-10-17T06:48:07;101658.63;;;15.00;100.00
71976;BME280;60680;52.182;5.398;2022-10-17T06:50:34;101661.06;;;15.03;100.00
71976;BME280;60680;52.182;5.398;2022-10-17T06:53:00;101666.22;;;15.05;100.00
71976;BME280;60680;52.182;5.398;2022-10-17T06:55:27;101660.88;;;15.06;100.00
71976;BME280;60680;52.182;5.398;2022-10-17T06:57:54;101673.91;;;15.08;100.00
71976;BME280;60680;52.182;5.398;2022-10-17T07:00:21;101680.94;;;15.07;100.00
71976;BME280;60680;52.182;5.398;2022-10-17T07:02:48;101691.41;;;15.07;100.00
71976;BME280;60680;52.182;5.398;2022-10-17T07:05:15;101690.41;;;15.10;100.00
71976;BME280;60680;52.182;5.398;2022-10-17T07:07:42;101685.06;;;15.12;100.00
71976;BME280;60680;52.182;5.398;2022-10-17T07:10:11;101689.22;;;15.16;100.00
71976;BME280;60680;52.182;5.398;2022-10-17T07:12:38;101684.81;;;15.16;100.00
71976;BME280;60680;52.182;5.398;2022-10-17T07:15:04;101693.44;;;15.18;100.00
71976;BME280;60680;52.182;5.398;2022-10-17T07:17:31;101687.34;;;15.18;99.92
71976;BME280;60680;52.182;5.398;2022-10-17T07:19:58;101702.06;;;15.20;100.00
71976;BME280;60680;52.182;5.398;2022-10-17T07:22:24;101696.06;;;15.18;100.00
71976;BME280;60680;52.182;5.398;2022-10-17T07:24:50;101704.69;;;15.20;100.00
71976;BME280;60680;52.182;5.398;2022-10-17T07:27:17;101702.81;;;15.22;100.00
71976;BME280;60680;52.182;5.398;2022-10-17T07:29:43;101690.47;;;15.24;100.00
71976;BME280;60680;52.182;5.398;2022-10-17T07:32:10;101701.88;;;15.23;100.00
71976;BME280;60680;52.182;5.398;2022-10-17T07:34:36;101691.38;;;15.23;100.00
71976;BME280;60680;52.182;5.398;2022-10-17T07:37:03;101700.00;;;15.25;100.00
71976;BME280;60680;52.182;5.398;2022-10-17T07:39:32;101707.03;;;15.25;100.00
71976;BME280;60680;52.182;5.398;2022-10-17T07:42:00;101726.25;;;15.25;100.00
71976;BME280;60680;52.182;5.398;2022-10-17T07:44:27;101709.75;;;15.23;100.00
71976;BME280;60680;52.182;5.398;2022-10-17T07:46:54;101714.91;;;15.25;100.00
71976;BME280;60680;52.182;5.398;2022-10-17T07:49:20;101738.34;;;15.28;100.00
71976;BME280;60680;52.182;5.398;2022-10-17T07:51:46;101737.41;;;15.29;100.00
71976;BME280;60680;52.182;5.398;2022-10-17T07:54:13;101740.78;;;15.31;100.00
71976;BME280;60680;52.182;5.398;2022-10-17T07:56:40;101752.13;;;15.32;100.00
71976;BME280;60680;52.182;5.398;2022-10-17T07:59:06;101778.34;;;15.32;100.00
71976;BME280;60680;52.182;5.398;2022-10-17T08:01:35;101802.06;;;15.30;100.00
71976;BME280;60680;52.182;5.398;2022-10-17T08:04:02;101826.31;;;15.34;100.00
71976;BME280;60680;52.182;5.398;2022-10-17T08:06:28;101848.13;;;15.34;100.00
71976;BME280;60680;52.182;5.398;2022-10-17T08:08:55;101856.78;;;15.36;100.00
71976;BME280;60680;52.182;5.398;2022-10-17T08:11:22;101856.69;;;15.38;100.00
71976;BME280;60680;52.182;5.398;2022-10-17T08:13:50;101869.75;;;15.39;100.00
71976;BME280;60680;52.182;5.398;2022-10-17T08:16:17;101869.16;;;15.50;100.00
71976;BME280;60680;52.182;5.398;2022-10-17T08:18:43;101860.75;;;15.59;100.00
71976;BME280;60680;52.182;5.398;2022-10-17T08:21:11;101864.66;;;15.68;100.00
71976;BME280;60680;52.182;5.398;2022-10-17T08:23:38;101859.22;;;15.73;100.00
71976;BME280;60680;52.182;5.398;2022-10-17T08:26:06;101863.59;;;15.72;100.00
71976;BME280;60680;52.182;5.398;2022-10-17T08:28:36;101864.56;;;15.69;100.00
71976;BME280;60680;52.182;5.398;2022-10-17T08:31:09;101858.41;;;15.70;100.00
71976;BME280;60680;52.182;5.398;2022-10-17T08:33:35;101843.50;;;15.71;100.00
71976;BME280;60680;52.182;5.398;2022-10-17T08:36:03;101844.53;;;15.68;100.00
71976;BME280;60680;52.182;5.398;2022-10-17T08:38:31;101863.88;;;15.66;100.00
71976;BME280;60680;52.182;5.398;2022-10-17T08:41:34;101871.75;;;15.66;100.00
71976;BME280;60680;52.182;5.398;2022-10-17T08:46:47;101883.91;;;15.68;100.00
71976;BME280;60680;52.182;5.398;2022-10-17T08:49:23;101908.28;;;15.70;100.00
71976;BME280;60680;52.182;5.398;2022-10-17T08:51:57;101910.13;;;15.68;100.00
71976;BME280;60680;52.182;5.398;2022-10-17T08:54:40;101921.53;;;15.67;100.00
71976;BME280;60680;52.182;5.398;2022-10-17T08:57:16;101922.31;;;15.69;100.00
71976;BME280;60680;52.182;5.398;2022-10-17T08:59:44;101922.38;;;15.68;100.00
71976;BME280;60680;52.182;5.398;2022-10-17T09:02:33;101919.69;;;15.69;100.00
71976;BME280;60680;52.182;5.398;2022-10-17T09:05:32;101895.16;;;15.70;100.00
71976;BME280;60680;52.182;5.398;2022-10-17T09:08:19;101886.38;;;15.72;100.00
71976;BME280;60680;52.182;5.398;2022-10-17T09:11:02;101870.63;;;15.72;100.00
71976;BME280;60680;52.182;5.398;2022-10-17T09:16:47;101827.59;;;15.74;100.00
71976;BME280;60680;52.182;5.398;2022-10-17T09:19:23;101830.34;;;15.73;100.00
71976;BME280;60680;52.182;5.398;2022-10-17T09:21:58;101837.19;;;15.75;100.00
71976;BME280;60680;52.182;5.398;2022-10-17T09:29:51;101860.69;;;15.77;100.00
71976;BME280;60680;52.182;5.398;2022-10-17T09:32:23;101883.31;;;15.79;100.00
71976;BME280;60680;52.182;5.398;2022-10-17T09:34:51;101915.75;;;15.78;100.00
71976;BME280;60680;52.182;5.398;2022-10-17T09:37:21;101914.81;;;15.79;100.00
71976;BME280;60680;52.182;5.398;2022-10-17T09:39:50;101918.38;;;15.78;100.00
71976;BME280;60680;52.182;5.398;2022-10-17T09:42:19;101916.69;;;15.77;100.00
71976;BME280;60680;52.182;5.398;2022-10-17T09:47:40;101875.53;;;15.78;100.00
71976;BME280;60680;52.182;5.398;2022-10-17T09:50:25;101865.88;;;15.78;100.00
71976;BME280;60680;52.182;5.398;2022-10-17T09:52:53;101867.56;;;15.79;100.00
71976;BME280;60680;52.182;5.398;2022-10-17T09:57:57;101878.50;;;15.87;100.00
71976;BME280;60680;52.182;5.398;2022-10-17T10:00:29;101880.09;;;15.90;100.00
71976;BME280;60680;52.182;5.398;2022-10-17T10:06:11;101895.50;;;15.96;100.00
71976;BME280;60680;52.182;5.398;2022-10-17T10:08:50;101908.63;;;15.96;100.00
71976;BME280;60680;52.182;5.398;2022-10-17T10:11:22;101927.00;;;15.96;100.00
71976;BME280;60680;52.182;5.398;2022-10-17T10:13:50;101929.72;;;15.95;100.00
71976;BME280;60680;52.182;5.398;2022-10-17T10:16:29;101922.59;;;15.97;100.00
71976;BME280;60680;52.182;5.398;2022-10-17T10:18:56;101932.16;;;15.98;100.00
71976;BME280;60680;52.182;5.398;2022-10-17T10:21:25;101943.59;;;15.97;100.00
71976;BME280;60680;52.182;5.398;2022-10-17T10:26:42;101971.47;;;15.99;100.00
71976;BME280;60680;52.182;5.398;2022-10-17T10:32:17;101990.59;;;16.01;100.00
71976;BME280;60680;52.182;5.398;2022-10-17T10:34:52;101995.84;;;16.01;100.00
71976;BME280;60680;52.182;5.398;2022-10-17T10:37:33;101994.94;;;16.02;100.00
71976;BME280;60680;52.182;5.398;2022-10-17T10:40:15;101992.13;;;16.05;100.00
71976;BME280;60680;52.182;5.398;2022-10-17T10:42:46;101999.94;;;16.07;100.00
71976;BME280;60680;52.182;5.398;2022-10-17T10:45:25;101999.81;;;16.08;100.00
71976;BME280;60680;52.182;5.398;2022-10-17T10:48:17;102004.25;;;16.08;100.00
71976;BME280;60680;52.182;5.398;2022-10-17T10:50:50;101998.91;;;16.09;100.00
71976;BME280;60680;52.182;5.398;2022-10-17T10:56:42;102001.19;;;16.16;100.00
71976;BME280;60680;52.182;5.398;2022-10-17T10:59:16;102008.81;;;16.20;100.00
71976;BME280;60680;52.182;5.398;2022-10-17T11:02:09;102011.19;;;16.25;100.00
71976;BME280;60680;52.182;5.398;2022-10-17T11:04:45;102014.56;;;16.27;100.00
71976;BME280;60680;52.182;5.398;2022-10-17T11:09:53;102013.41;;;16.33;100.00
71976;BME280;60680;52.182;5.398;2022-10-17T11:12:24;102020.44;;;16.32;100.00
71976;BME280;60680;52.182;5.398;2022-10-17T11:15:01;102033.47;;;16.34;100.00
71976;BME280;60680;52.182;5.398;2022-10-17T11:17:58;102029.91;;;16.35;100.00
71976;BME280;60680;52.182;5.398;2022-10-17T11:23:13;102022.47;;;16.43;100.00
71976;BME280;60680;52.182;5.398;2022-10-17T11:25:46;102032.88;;;16.44;100.00
71976;BME280;60680;52.182;5.398;2022-10-17T11:28:20;102030.16;;;16.46;100.00
71976;BME280;60680;52.182;5.398;2022-10-17T11:31:03;102039.91;;;16.44;100.00
71976;BME280;60680;52.182;5.398;2022-10-17T11:33:43;102043.28;;;16.46;100.00
71976;BME280;60680;52.182;5.398;2022-10-17T11:36:11;102054.81;;;16.43;100.00
71976;BME280;60680;52.182;5.398;2022-10-17T11:39:15;102054.75;;;16.45;100.00
71976;BME280;60680;52.182;5.398;2022-10-17T11:41:51;102065.41;;;16.42;100.00
71976;BME280;60680;52.182;5.398;2022-10-17T11:44:35;102067.97;;;16.43;100.00
71976;BME280;60680;52.182;5.398;2022-10-17T11:49:47;102076.94;;;16.39;100.00
71976;BME280;60680;52.182;5.398;2022-10-17T11:55:27;102083.03;;;16.40;100.00
71976;BME280;60680;52.182;5.398;2022-10-17T11:58:20;102075.94;;;16.42;100.00
71976;BME280;60680;52.182;5.398;2022-10-17T12:01:06;102071.63;;;16.41;100.00
71976;BME280;60680;52.182;5.398;2022-10-17T12:03:44;102074.91;;;16.44;100.00
71976;BME280;60680;52.182;5.398;2022-10-17T12:09:00;102077.03;;;16.54;100.00
71976;BME280;60680;52.182;5.398;2022-10-17T12:17:04;102074.06;;;16.60;100.00
71976;BME280;60680;52.182;5.398;2022-10-17T12:19:36;102073.03;;;16.62;100.00
71976;BME280;60680;52.182;5.398;2022-10-17T12:22:18;102082.53;;;16.65;100.00
71976;BME280;60680;52.182;5.398;2022-10-17T12:25:00;102083.56;;;16.62;100.00
71976;BME280;60680;52.182;5.398;2022-10-17T12:27:40;102085.44;;;16.60;100.00
71976;BME280;60680;52.182;5.398;2022-10-17T12:32:58;102095.16;;;16.58;100.00
71976;BME280;60680;52.182;5.398;2022-10-17T12:35:33;102096.28;;;16.54;100.00
71976;BME280;60680;52.182;5.398;2022-10-17T12:38:02;102087.69;;;16.50;100.00
71976;BME280;60680;52.182;5.398;2022-10-17T12:48:09;102099.97;;;16.34;100.00
71976;BME280;60680;52.182;5.398;2022-10-17T12:56:47;102108.81;;;16.33;100.00
71976;BME280;60680;52.182;5.398;2022-10-17T12:59:25;102113.28;;;16.31;100.00
71976;BME280;60680;52.182;5.398;2022-10-17T13:01:56;102117.00;;;16.27;100.00
71976;BME280;60680;52.182;5.398;2022-10-17T13:04:24;102113.53;;;16.26;100.00
71976;BME280;60680;52.182;5.398;2022-10-17T13:06:54;102116.31;;;16.23;100.00
71976;BME280;60680;52.182;5.398;2022-10-17T13:09:31;102130.22;;;16.25;100.00
71976;BME280;60680;52.182;5.398;2022-10-17T13:12:03;102130.34;;;16.24;100.00
71976;BME280;60680;52.182;5.398;2022-10-17T13:14:32;102131.25;;;16.23;100.00
71976;BME280;60680;52.182;5.398;2022-10-17T13:17:01;102143.53;;;16.22;100.00
71976;BME280;60680;52.182;5.398;2022-10-17T13:19:41;102134.81;;;16.22;100.00
71976;BME280;60680;52.182;5.398;2022-10-17T13:24:46;102144.38;;;16.23;100.00
71976;BME280;60680;52.182;5.398;2022-10-17T13:27:26;102144.06;;;16.29;100.00
71976;BME280;60680;52.182;5.398;2022-10-17T13:29:54;102150.91;;;16.31;100.00
71976;BME280;60680;52.182;5.398;2022-10-17T13:32:34;102154.22;;;16.35;100.00
71976;BME280;60680;52.182;5.398;2022-10-17T13:35:12;102159.16;;;16.41;100.00
71976;BME280;60680;52.182;5.398;2022-10-17T13:37:44;102162.47;;;16.45;100.00
71976;BME280;60680;52.182;5.398;2022-10-17T13:40:24;102177.13;;;16.49;100.00
71976;BME280;60680;52.182;5.398;2022-10-17T13:43:21;102182.22;;;16.52;100.00
71976;BME280;60680;52.182;5.398;2022-10-17T13:45:59;102179.75;;;16.49;100.00
71976;BME280;60680;52.182;5.398;2022-10-17T13:48:49;102189.34;;;16.50;99.90
71976;BME280;60680;52.182;5.398;2022-10-17T13:51:15;102184.09;;;16.50;100.00
71976;BME280;60680;52.182;5.398;2022-10-17T13:53:42;102192.81;;;16.50;100.00
71976;BME280;60680;52.182;5.398;2022-10-17T13:56:19;102198.75;;;16.54;100.00
71976;BME280;60680;52.182;5.398;2022-10-17T13:59:07;102204.84;;;16.55;100.00
71976;BME280;60680;52.182;5.398;2022-10-17T14:01:42;102200.38;;;16.57;100.00
71976;BME280;60680;52.182;5.398;2022-10-17T14:04:09;102196.81;;;16.58;100.00
71976;BME280;60680;52.182;5.398;2022-10-17T14:06:46;102199.44;;;16.58;100.00
71976;BME280;60680;52.182;5.398;2022-10-17T14:09:27;102201.00;;;16.62;99.99
71976;BME280;60680;52.182;5.398;2022-10-17T14:11:58;102197.50;;;16.61;99.79
71976;BME280;60680;52.182;5.398;2022-10-17T14:14:25;102195.63;;;16.63;100.00
71976;BME280;60680;52.182;5.398;2022-10-17T14:16:53;102194.59;;;16.66;99.99
71976;BME280;60680;52.182;5.398;2022-10-17T14:24:39;102192.84;;;16.66;99.61
71976;BME280;60680;52.182;5.398;2022-10-17T14:27:31;102189.00;;;16.72;99.58
71976;BME280;60680;52.182;5.398;2022-10-17T14:30:27;102189.78;;;16.74;99.63
71976;BME280;60680;52.182;5.398;2022-10-17T14:33:24;102192.09;;;16.80;99.55
71976;BME280;60680;52.182;5.398;2022-10-17T14:35:53;102195.44;;;16.84;99.09
71976;BME280;60680;52.182;5.398;2022-10-17T14:38:21;102207.47;;;16.88;99.46
71976;BME280;60680;52.182;5.398;2022-10-17T14:40:58;102204.50;;;16.94;99.14
71976;BME280;60680;52.182;5.398;2022-10-17T14:43:52;102203.41;;;16.98;99.25
71976;BME280;60680;52.182;5.398;2022-10-17T14:46:19;102205.28;;;16.96;98.65
71976;BME280;60680;52.182;5.398;2022-10-17T14:48:51;102201.63;;;16.99;98.55